Zaliv Vostok — A8RM6 — position and weather

sailwx.info

Track history (hours):
 
Tides and Currents Weather Stations Pressure Air Temp Water Temp Dewpoint Dewpoint Depression Visibility Wind Speed Wind Dir Waves Ship Positions

Zaliv Vostok

Last reported at 2015-Apr-15 19:08 UTC. Time now 2015-Apr-20 00:46 UTC.
Position N 05°29' E 098°21'.

Length 243 m; draft 8.8 m.

Type: Tanker. MMSI: 636014127.

Date/timePositionNaut miles runAvg speedWind from/ knotsBaromVisibWave heightAir tempDewpointWater temp
2015-Apr-15 19:08N 05°29' E 098°21'610.8
2015-Apr-15 18:33N 05°24' E 098°26'1110.6
2015-Apr-15 17:33N 05°16' E 098°33'1010.4
2015-Apr-15 16:33N 05°09' E 098°41'1010.2
2015-Apr-15 15:34N 05°02' E 098°48'10 9.9
2015-Apr-15 14:30N 04°54' E 098°55'27010.2
2015-Apr-14 12:06N 01°56' E 102°18'6 9.9
2015-Apr-14 11:30N 01°53' E 102°23'9 9.6
2015-Apr-14 10:33N 01°49' E 102°31'9 9.1
2015-Apr-14 09:31N 01°45' E 102°40'9 9.3
2015-Apr-14 08:31N 01°41' E 102°48'6310.2
2015-Apr-14 02:23N 01°09' E 103°42'7 7.7
2015-Apr-14 01:28N 01°11' E 103°49'9 9.1
2015-Apr-14 00:32N 01°15' E 103°57'7 0.7
2015-Apr-13 14:05N 01°18' E 104°03'2 3.1
2015-Apr-13 13:29N 01°17' E 104°03'2 1.9
2015-Apr-13 12:33N 01°17' E 104°04'3 3.3
2015-Apr-13 11:33N 01°17' E 104°08'4 4.2
2015-Apr-13 10:33N 01°17' E 104°12'  
Track history (hours):
 
Tides and Currents Weather Stations Pressure Air Temp Water Temp Dewpoint Dewpoint Depression Visibility Wind Speed Wind Dir Waves Ship Positions

Zaliv Vostok

Last reported at 2015-Apr-15 19:08 UTC. Time now 2015-Apr-20 00:46 UTC.
Position N 05°29' E 098°21'.

Length 243 m; draft 8.8 m.

Type: Tanker. MMSI: 636014127.

Date/timePositionNaut miles runAvg speedWind from/ knotsBaromVisibWave heightAir tempDewpointWater temp
2015-Apr-15 19:08N 05°29' E 098°21'610.8
2015-Apr-15 18:33N 05°24' E 098°26'1110.6
2015-Apr-15 17:33N 05°16' E 098°33'1010.4
2015-Apr-15 16:33N 05°09' E 098°41'1010.2
2015-Apr-15 15:34N 05°02' E 098°48'10 9.9
2015-Apr-15 14:30N 04°54' E 098°55'27010.2
2015-Apr-14 12:06N 01°56' E 102°18'6 9.9
2015-Apr-14 11:30N 01°53' E 102°23'9 9.6
2015-Apr-14 10:33N 01°49' E 102°31'9 9.1
2015-Apr-14 09:31N 01°45' E 102°40'9 9.3
2015-Apr-14 08:31N 01°41' E 102°48'6310.2
2015-Apr-14 02:23N 01°09' E 103°42'7 7.7
2015-Apr-14 01:28N 01°11' E 103°49'9 9.1
2015-Apr-14 00:32N 01°15' E 103°57'7 0.7
2015-Apr-13 14:05N 01°18' E 104°03'2 3.1
2015-Apr-13 13:29N 01°17' E 104°03'2 1.9
2015-Apr-13 12:33N 01°17' E 104°04'3 3.3
2015-Apr-13 11:33N 01°17' E 104°08'4 4.2
2015-Apr-13 10:33N 01°17' E 104°12'  

Dump ship's entire track history